Weather reports worldwide

Advertisment
Talavera de la Reina, Spain (8274): temperature & dewpoint: 19.08.2019 08:00:00 - 25.08.2019 08:00:00 (CEST)Talavera de la Reina, Spain (8274): wind speed & gusts: 19.08.2019 08:00:00 - 25.08.2019 08:00:00 (CEST)Talavera de la Reina, Spain (8274): wind direction: 19.08.2019 08:00:00 - 25.08.2019 08:00:00 (CEST)Talavera de la Reina, Spain (8274): visibility: 19.08.2019 08:00:00 - 25.08.2019 08:00:00 (CEST)Talavera de la Reina, Spain (8274): sunshine duration: 19.08.2019 08:00:00 - 25.08.2019 08:00:00 (CEST)Talavera de la Reina, Spain (8274): precipitation: 19.08.2019 08:00:00 - 25.08.2019 08:00:00 (CEST)
Date & Time tt [°C] td [°C] ff [km/h] ff [kn] fx [km/h] fx [kn] dd vv [km] sd [min] rr [mm]
25.08.2019 08:00:00 - - - - - - - - - -
25.08.2019 07:00:00 24,1 10,0 16 8 34 18 E 20 0 0,0
25.08.2019 06:00:00 23,3 7,8 11 6 23 13 E 20 0 0,0
25.08.2019 05:00:00 21,4 6,1 4 2 13 7 E 20 0 0,0
25.08.2019 04:00:00 21,5 4,5 8 4 16 9 E 20 0 0,0
25.08.2019 03:00:00 21,4 5,8 5 3 10 5 ENE 20 0 0,0
25.08.2019 02:00:00 21,7 6,7 3 2 9 5 ENE 20 0 -
25.08.2019 01:00:00 23,2 6,8 4 2 10 5 E 20 0 0,0
25.08.2019 00:00:00 23,2 7,7 2 1 6 3 N 20 0 0,0
24.08.2019 23:00:00 23,6 9,2 3 2 6 4 ENE 20 0 0,0
24.08.2019 22:00:00 25,8 9,2 1 1 3 1 NE 20 0 0,0
24.08.2019 21:00:00 30,5 9,9 0 0 6 3 N 20 9 0,0
24.08.2019 20:00:00 34,2 6,5 3 2 16 9 ENE 20 60 -
24.08.2019 19:00:00 36,2 3,4 8 4 17 9 E 20 60 0,0
24.08.2019 18:00:00 36,6 2,7 7 4 18 10 ESE 20 60 0,0
24.08.2019 17:00:00 36,7 4,8 5 3 12 6 ENE 20 60 0,0
24.08.2019 16:00:00 36,2 3,4 6 4 18 10 E 20 60 0,0
24.08.2019 15:00:00 34,7 6,1 6 4 16 9 NE 20 60 0,0
24.08.2019 14:00:00 32,9 7,7 8 4 26 14 E 20 60 -
24.08.2019 13:00:00 31,4 8,4 11 6 28 15 ESE 8 60 0,0
24.08.2019 12:00:00 29,5 9,0 11 6 30 16 E 20 60 0,0
24.08.2019 11:00:00 27,5 9,3 10 5 28 15 E 20 60 0,0
24.08.2019 10:00:00 24,7 8,7 11 6 26 14 E 20 60 0,0
24.08.2019 09:00:00 22,4 7,0 10 5 20 11 E 20 34 0,0
24.08.2019 08:00:00 20,5 5,6 3 2 25 14 E 20 0 -
24.08.2019 07:00:00 18,9 5,3 6 4 17 9 E 20 0 0,0
24.08.2019 06:00:00 18,5 6,4 4 2 9 5 E 20 0 0,0
24.08.2019 05:00:00 20,1 6,4 5 3 13 7 E 20 0 0,0
24.08.2019 04:00:00 20,1 6,4 4 2 8 4 ENE 20 0 0,0
24.08.2019 03:00:00 20,6 6,8 5 3 9 5 ENE 20 0 0,0
24.08.2019 02:00:00 22,3 5,6 5 3 10 5 ESE 20 0 -
24.08.2019 01:00:00 22,8 5,6 5 3 8 4 ENE 20 0 0,0
24.08.2019 00:00:00 23,3 7,0 5 3 8 5 E 20 0 0,0
23.08.2019 23:00:00 24,5 8,0 3 2 5 3 E 20 0 0,0
23.08.2019 22:00:00 26,1 8,1 1 1 7 4 ENE 20 0 0,0
23.08.2019 21:00:00 29,9 6,5 4 2 11 6 E 20 10 0,0
23.08.2019 20:00:00 34,3 0,9 6 3 - - ESE 20 - -
23.08.2019 19:00:00 35,1 2,5 5 3 22 12 ENE 20 60 0,0
23.08.2019 18:00:00 35,3 3,8 8 5 22 12 E 3,1 60 0,0
23.08.2019 17:00:00 34,9 5,3 9 5 24 13 NE 20 60 0,0
23.08.2019 16:00:00 34,5 5,0 6 3 25 13 E 20 60 0,0
23.08.2019 15:00:00 33,7 6,1 9 5 28 15 E 10 60 0,0
23.08.2019 14:00:00 32,6 8,1 12 6 29 15 E 20 60 -
23.08.2019 13:00:00 30,6 8,4 16 8 31 17 E 20 60 0,0
23.08.2019 12:00:00 28,7 9,4 14 8 33 18 E 20 60 0,0
23.08.2019 11:00:00 26,8 9,7 13 7 35 19 E 20 60 0,0
23.08.2019 10:00:00 25,3 10,3 10 5 26 14 E 20 60 0,0
23.08.2019 09:00:00 22,9 9,3 10 5 29 15 E 20 35 0,0
23.08.2019 08:00:00 22,6 8,3 14 7 35 19 E 20 0 -
23.08.2019 07:00:00 22,5 8,3 13 7 34 19 E 20 0 0,0
23.08.2019 06:00:00 21,8 5,3 8 5 24 13 E 20 0 0,0
23.08.2019 05:00:00 21,6 2,3 9 5 29 15 E 20 0 0,0
23.08.2019 04:00:00 20,9 2,7 7 4 17 9 E 20 0 0,0
23.08.2019 03:00:00 20,2 3,0 7 4 14 8 ENE 20 0 0,0
23.08.2019 02:00:00 21,2 3,4 5 3 11 6 ENE 20 0 -
23.08.2019 01:00:00 21,6 3,8 6 3 10 6 ENE 20 0 0,0
23.08.2019 00:00:00 23,4 2,3 5 3 9 5 ENE 20 0 0,0
22.08.2019 23:00:00 25,0 3,0 4 2 8 5 E 20 0 0,0
22.08.2019 22:00:00 26,3 2,9 4 2 14 8 ENE 20 0 0,0
22.08.2019 21:00:00 31,7 0,0 7 4 16 9 ESE 20 11 0,0
22.08.2019 20:00:00 33,6 1,3 7 4 18 10 ESE 20 60 -
22.08.2019 19:00:00 34,4 2,1 8 4 18 10 E 20 60 0,0
22.08.2019 18:00:00 34,8 4,3 5 3 18 10 E 20 60 0,0
22.08.2019 17:00:00 34,5 5,9 6 4 23 12 SSE 20 60 0,0
22.08.2019 16:00:00 34,0 6,4 8 5 27 14 SE 20 60 0,0
22.08.2019 15:00:00 32,8 8,3 8 5 22 12 ESE 20 60 0,0
22.08.2019 14:00:00 31,3 11,1 9 5 26 14 E 20 60 -
22.08.2019 13:00:00 29,4 11,9 10 5 25 14 E 20 60 0,0
22.08.2019 12:00:00 27,3 13,3 8 5 23 12 E 20 60 0,0
22.08.2019 11:00:00 24,6 12,8 11 6 26 14 E 20 60 0,0
22.08.2019 10:00:00 22,8 11,8 14 7 32 17 E 20 60 0,0
22.08.2019 09:00:00 20,4 12,6 10 5 26 14 E 20 35 0,0
22.08.2019 08:00:00 19,0 13,4 5 3 18 10 E 20 0 -
22.08.2019 07:00:00 18,9 13,6 5 3 8 5 ENE 20 0 0,0
22.08.2019 06:00:00 20,0 13,9 2 1 15 8 E 20 0 0,0
22.08.2019 05:00:00 21,1 14,5 3 2 10 5 E 20 0 0,0
22.08.2019 04:00:00 21,7 14,6 5 3 9 5 ENE 20 0 0,0
22.08.2019 03:00:00 23,2 14,5 6 3 19 10 E 20 0 0,0
22.08.2019 02:00:00 23,8 14,8 9 5 36 20 E 20 0 -
22.08.2019 01:00:00 24,8 15,4 18 10 41 22 E 20 0 0,0
22.08.2019 00:00:00 25,1 14,8 6 3 14 8 E 20 0 0,0
21.08.2019 23:00:00 25,2 13,1 4 2 12 6 ENE 20 0 0,0
21.08.2019 22:00:00 26,7 13,5 4 2 9 5 ENE 20 0 0,0
21.08.2019 21:00:00 29,6 13,4 4 2 13 7 E 20 7 0,0
21.08.2019 20:00:00 31,5 12,8 4 2 14 8 E 20 49 -
21.08.2019 19:00:00 32,7 12,3 3 2 19 10 E 20 60 0,0
21.08.2019 18:00:00 32,5 13,2 8 5 20 11 ENE 20 56 0,0
21.08.2019 17:00:00 33,2 12,2 4 2 25 13 ENE 20 60 0,0
21.08.2019 16:00:00 31,6 13,4 6 4 24 13 E 20 60 0,0
21.08.2019 15:00:00 30,3 13,9 5 3 28 15 E 20 32 0,0
21.08.2019 14:00:00 28,5 13,9 12 6 30 16 ESE 20 28 -
21.08.2019 13:00:00 28,0 14,6 15 8 31 17 ESE 20 57 0,0
21.08.2019 12:00:00 26,4 14,8 10 6 27 15 E 20 25 0,0
21.08.2019 11:00:00 25,1 14,2 11 6 28 15 E 20 0 0,0
21.08.2019 10:00:00 24,0 14,1 11 6 32 17 E 20 0 0,0
21.08.2019 09:00:00 23,8 13,7 12 7 31 17 E 20 0 0,0
21.08.2019 08:00:00 23,7 13,6 11 6 27 15 E 20 0 -
21.08.2019 07:00:00 23,5 13,1 11 6 28 15 E 20 0 0,0
21.08.2019 06:00:00 23,6 14,9 13 7 39 21 E 20 0 0,0
21.08.2019 05:00:00 23,3 14,6 17 9 45 24 E 20 0 0,0
21.08.2019 04:00:00 23,5 13,9 19 11 51 28 E 20 0 0,0
21.08.2019 03:00:00 24,1 13,7 22 12 46 25 E 20 0 0,0
21.08.2019 02:00:00 25,1 13,7 22 12 48 26 E 20 0 -
21.08.2019 01:00:00 26,2 11,9 16 8 40 22 E 20 0 0,0
21.08.2019 00:00:00 27,6 9,4 13 7 29 15 E 20 0 0,0
20.08.2019 23:00:00 26,1 7,7 5 3 11 6 E 20 0 0,0
20.08.2019 22:00:00 26,5 8,5 5 3 7 4 ENE 20 0 0,0
20.08.2019 21:00:00 29,3 8,4 4 2 14 8 ENE 20 9 0,0
20.08.2019 20:00:00 33,3 5,0 6 3 16 9 ESE 20 60 -
20.08.2019 19:00:00 33,9 5,5 8 4 22 12 E 20 60 0,0
20.08.2019 18:00:00 34,2 5,6 7 4 26 14 ESE 20 60 0,0
20.08.2019 17:00:00 34,1 5,6 8 5 36 20 SSE 20 60 0,0
20.08.2019 16:00:00 33,6 3,4 7 4 28 15 ESE 20 60 0,0
20.08.2019 15:00:00 32,8 6,8 5 3 27 14 ESE 20 60 0,0
20.08.2019 14:00:00 31,7 9,3 6 3 22 12 ENE 20 60 -
20.08.2019 13:00:00 30,7 10,0 10 5 33 18 E 20 60 0,0
20.08.2019 12:00:00 29,4 9,0 11 6 28 15 ESE 20 60 0,0
20.08.2019 11:00:00 27,0 11,1 3 2 11 6 ENE 20 60 0,0
20.08.2019 10:00:00 24,6 11,2 3 2 6 4 ENE 20 60 0,0
20.08.2019 09:00:00 18,5 11,3 1 1 4 2 SSE 20 18 0,0
20.08.2019 08:00:00 19,1 9,8 2 1 7 4 E 20 0 -
20.08.2019 07:00:00 19,8 11,0 2 1 5 3 E 20 0 0,0
20.08.2019 06:00:00 21,3 11,0 3 2 5 3 WNW 20 0 0,0
20.08.2019 05:00:00 23,5 8,8 1 1 10 6 W 20 0 0,0
20.08.2019 04:00:00 23,5 7,6 5 3 14 7 WNW 20 0 0,0
20.08.2019 03:00:00 23,4 6,2 3 2 5 3 W 20 0 0,0
20.08.2019 02:00:00 24,0 8,4 2 1 9 5 NW 20 0 -
20.08.2019 01:00:00 25,1 7,3 5 3 9 5 W 20 0 0,0
20.08.2019 00:00:00 25,1 10,2 2 1 10 5 E 20 0 0,0
19.08.2019 23:00:00 27,2 7,1 6 3 10 5 SSW 20 0 0,0
19.08.2019 22:00:00 28,0 5,6 1 1 19 11 NNW 20 0 0,0
19.08.2019 21:00:00 30,1 3,2 8 5 29 16 WNW 20 0 0,0
19.08.2019 20:00:00 32,4 2,5 11 6 31 17 NW 20 31 -
19.08.2019 19:00:00 33,7 0,4 14 7 36 20 WNW 20 53 0,0
19.08.2019 18:00:00 34,7 1,1 12 7 29 16 NW 20 60 0,0
19.08.2019 17:00:00 34,8 3,4 14 8 34 18 WNW 20 60 0,0
19.08.2019 16:00:00 34,2 8,0 14 8 34 19 WNW 20 60 0,0
19.08.2019 15:00:00 33,5 8,9 12 6 35 19 WNW 20 60 0,0
19.08.2019 14:00:00 31,0 9,3 12 6 32 17 W 20 60 -
19.08.2019 13:00:00 30,7 6,5 11 6 25 14 WNW 20 60 0,0
19.08.2019 12:00:00 27,9 11,4 7 4 18 10 W 20 60 0,0
19.08.2019 11:00:00 26,2 13,0 6 4 16 9 W 20 60 0,0
19.08.2019 10:00:00 24,3 14,4 5 3 13 7 NW 20 60 0,0
19.08.2019 09:00:00 20,7 14,8 2 1 11 6 SW 20 33 0,0
19.08.2019 08:00:00 20,2 14,3 4 2 10 6 SSW 20 0 -

tt = temperature
td = dewpoint
ff = wind speed
fx = gusts
dd = wind direction
vv = visibility
sd = sunshine duration
rr = precipitation

Next stations